sensor_id;sensor_type;location;lat;lon;timestamp;temperature;humidity
26537;DHT22;14204;51.262;5.488;2023-07-20T00:01:04;20.20;99.90
26537;DHT22;14204;51.262;5.488;2023-07-20T00:03:29;20.10;99.90
26537;DHT22;14204;51.262;5.488;2023-07-20T00:05:55;20.10;99.90
26537;DHT22;14204;51.262;5.488;2023-07-20T00:08:21;20.00;99.90
26537;DHT22;14204;51.262;5.488;2023-07-20T00:10:46;19.90;99.90
26537;DHT22;14204;51.262;5.488;2023-07-20T00:13:12;20.00;99.90
26537;DHT22;14204;51.262;5.488;2023-07-20T00:15:38;20.00;99.90
26537;DHT22;14204;51.262;5.488;2023-07-20T00:18:04;19.90;99.90
26537;DHT22;14204;51.262;5.488;2023-07-20T00:20:30;19.90;99.90
26537;DHT22;14204;51.262;5.488;2023-07-20T00:22:57;19.90;99.90
26537;DHT22;14204;51.262;5.488;2023-07-20T00:25:26;19.90;99.90
26537;DHT22;14204;51.262;5.488;2023-07-20T00:27:52;19.90;99.90
26537;DHT22;14204;51.262;5.488;2023-07-20T00:30:18;19.90;99.90
26537;DHT22;14204;51.262;5.488;2023-07-20T00:32:44;19.90;99.90
26537;DHT22;14204;51.262;5.488;2023-07-20T00:35:10;19.90;99.90
26537;DHT22;14204;51.262;5.488;2023-07-20T00:37:38;19.80;99.90
26537;DHT22;14204;51.262;5.488;2023-07-20T00:40:04;19.80;99.90
26537;DHT22;14204;51.262;5.488;2023-07-20T00:42:33;19.80;99.90
26537;DHT22;14204;51.262;5.488;2023-07-20T00:44:59;19.80;99.90
26537;DHT22;14204;51.262;5.488;2023-07-20T00:47:26;19.80;99.90
26537;DHT22;14204;51.262;5.488;2023-07-20T00:49:52;19.70;99.90
26537;DHT22;14204;51.262;5.488;2023-07-20T00:52:19;19.70;99.90
26537;DHT22;14204;51.262;5.488;2023-07-20T00:54:47;19.70;99.90
26537;DHT22;14204;51.262;5.488;2023-07-20T00:57:14;19.70;99.90
26537;DHT22;14204;51.262;5.488;2023-07-20T00:59:40;19.60;99.90
26537;DHT22;14204;51.262;5.488;2023-07-20T01:02:06;19.70;99.90
26537;DHT22;14204;51.262;5.488;2023-07-20T01:04:32;19.70;99.90
26537;DHT22;14204;51.262;5.488;2023-07-20T01:07:30;19.60;99.90
26537;DHT22;14204;51.262;5.488;2023-07-20T01:10:10;19.60;99.90
26537;DHT22;14204;51.262;5.488;2023-07-20T01:12:48;19.60;99.90
26537;DHT22;14204;51.262;5.488;2023-07-20T01:15:16;19.50;99.90
26537;DHT22;14204;51.262;5.488;2023-07-20T01:17:42;19.50;99.90
26537;DHT22;14204;51.262;5.488;2023-07-20T01:20:12;19.50;99.90
26537;DHT22;14204;51.262;5.488;2023-07-20T01:31:30;19.40;99.90
26537;DHT22;14204;51.262;5.488;2023-07-20T01:33:58;19.40;99.90
26537;DHT22;14204;51.262;5.488;2023-07-20T01:36:27;19.40;99.90
26537;DHT22;14204;51.262;5.488;2023-07-20T01:38:54;19.40;99.90
26537;DHT22;14204;51.262;5.488;2023-07-20T01:41:21;19.40;99.90
26537;DHT22;14204;51.262;5.488;2023-07-20T01:43:47;19.40;99.90
26537;DHT22;14204;51.262;5.488;2023-07-20T01:46:13;19.30;99.90
26537;DHT22;14204;51.262;5.488;2023-07-20T01:48:39;19.40;99.90
26537;DHT22;14204;51.262;5.488;2023-07-20T01:51:04;19.40;99.90
26537;DHT22;14204;51.262;5.488;2023-07-20T01:53:30;19.40;99.90
26537;DHT22;14204;51.262;5.488;2023-07-20T01:55:56;19.40;99.90
26537;DHT22;14204;51.262;5.488;2023-07-20T01:58:22;19.40;99.90
26537;DHT22;14204;51.262;5.488;2023-07-20T02:00:48;19.40;99.90
26537;DHT22;14204;51.262;5.488;2023-07-20T02:03:14;19.40;99.90
26537;DHT22;14204;51.262;5.488;2023-07-20T02:05:42;19.40;99.90
26537;DHT22;14204;51.262;5.488;2023-07-20T02:08:07;19.40;99.90
26537;DHT22;14204;51.262;5.488;2023-07-20T02:10:33;19.30;99.90
26537;DHT22;14204;51.262;5.488;2023-07-20T02:12:58;19.30;99.90
26537;DHT22;14204;51.262;5.488;2023-07-20T02:15:24;19.40;99.90
26537;DHT22;14204;51.262;5.488;2023-07-20T02:17:50;19.40;99.90
26537;DHT22;14204;51.262;5.488;2023-07-20T02:20:15;19.40;99.90
26537;DHT22;14204;51.262;5.488;2023-07-20T02:22:41;19.40;99.90
26537;DHT22;14204;51.262;5.488;2023-07-20T02:25:07;19.40;99.90
26537;DHT22;14204;51.262;5.488;2023-07-20T02:27:37;19.40;99.90
26537;DHT22;14204;51.262;5.488;2023-07-20T02:30:03;19.40;99.90
26537;DHT22;14204;51.262;5.488;2023-07-20T02:32:30;19.30;99.90
26537;DHT22;14204;51.262;5.488;2023-07-20T02:34:56;19.30;99.90
26537;DHT22;14204;51.262;5.488;2023-07-20T02:37:21;19.20;99.90
26537;DHT22;14204;51.262;5.488;2023-07-20T02:39:47;19.30;99.90
26537;DHT22;14204;51.262;5.488;2023-07-20T02:42:12;19.30;99.90
26537;DHT22;14204;51.262;5.488;2023-07-20T02:44:38;19.30;99.90
26537;DHT22;14204;51.262;5.488;2023-07-20T02:47:04;19.30;99.90
26537;DHT22;14204;51.262;5.488;2023-07-20T02:49:30;19.20;99.90
26537;DHT22;14204;51.262;5.488;2023-07-20T02:51:56;19.30;99.90
26537;DHT22;14204;51.262;5.488;2023-07-20T02:54:22;19.20;99.90
26537;DHT22;14204;51.262;5.488;2023-07-20T02:56:47;19.30;99.90
26537;DHT22;14204;51.262;5.488;2023-07-20T02:59:13;19.20;99.90
26537;DHT22;14204;51.262;5.488;2023-07-20T03:01:38;19.20;99.90
26537;DHT22;14204;51.262;5.488;2023-07-20T03:04:04;19.20;99.90
26537;DHT22;14204;51.262;5.488;2023-07-20T03:06:30;19.20;99.90
26537;DHT22;14204;51.262;5.488;2023-07-20T03:08:56;19.10;99.90
26537;DHT22;14204;51.262;5.488;2023-07-20T03:11:22;19.10;99.90
26537;DHT22;14204;51.262;5.488;2023-07-20T03:13:47;19.10;99.90
26537;DHT22;14204;51.262;5.488;2023-07-20T03:16:17;19.20;99.90
26537;DHT22;14204;51.262;5.488;2023-07-20T03:18:43;19.10;99.90
26537;DHT22;14204;51.262;5.488;2023-07-20T03:21:09;19.10;99.90
26537;DHT22;14204;51.262;5.488;2023-07-20T03:23:39;19.20;99.90
26537;DHT22;14204;51.262;5.488;2023-07-20T03:26:06;19.10;99.90
26537;DHT22;14204;51.262;5.488;2023-07-20T03:28:34;19.10;99.90
26537;DHT22;14204;51.262;5.488;2023-07-20T03:31:00;19.10;99.90
26537;DHT22;14204;51.262;5.488;2023-07-20T03:33:28;19.10;99.90
26537;DHT22;14204;51.262;5.488;2023-07-20T03:35:54;19.10;99.90
26537;DHT22;14204;51.262;5.488;2023-07-20T03:38:20;19.10;99.90
26537;DHT22;14204;51.262;5.488;2023-07-20T03:40:50;19.10;99.90
26537;DHT22;14204;51.262;5.488;2023-07-20T03:43:16;19.10;99.90
26537;DHT22;14204;51.262;5.488;2023-07-20T03:45:42;19.00;99.90
26537;DHT22;14204;51.262;5.488;2023-07-20T03:48:08;19.00;99.90
26537;DHT22;14204;51.262;5.488;2023-07-20T03:50:34;19.00;99.90
26537;DHT22;14204;51.262;5.488;2023-07-20T03:53:00;19.00;99.90
26537;DHT22;14204;51.262;5.488;2023-07-20T03:55:26;19.00;99.90
26537;DHT22;14204;51.262;5.488;2023-07-20T03:57:51;19.00;99.90
26537;DHT22;14204;51.262;5.488;2023-07-20T04:00:18;19.10;99.90
26537;DHT22;14204;51.262;5.488;2023-07-20T04:02:43;19.00;99.90
26537;DHT22;14204;51.262;5.488;2023-07-20T04:05:09;18.90;99.90
26537;DHT22;14204;51.262;5.488;2023-07-20T04:07:35;18.90;99.90
26537;DHT22;14204;51.262;5.488;2023-07-20T04:10:00;18.90;99.90
26537;DHT22;14204;51.262;5.488;2023-07-20T04:12:26;18.90;99.90
26537;DHT22;14204;51.262;5.488;2023-07-20T04:14:52;18.90;99.90
26537;DHT22;14204;51.262;5.488;2023-07-20T04:17:18;18.90;99.90
26537;DHT22;14204;51.262;5.488;2023-07-20T04:19:43;18.90;99.90
26537;DHT22;14204;51.262;5.488;2023-07-20T04:22:09;18.90;99.90
26537;DHT22;14204;51.262;5.488;2023-07-20T04:24:35;18.90;99.90
26537;DHT22;14204;51.262;5.488;2023-07-20T04:27:01;18.90;99.90
26537;DHT22;14204;51.262;5.488;2023-07-20T04:29:26;18.90;99.90
26537;DHT22;14204;51.262;5.488;2023-07-20T04:31:52;18.90;99.90
26537;DHT22;14204;51.262;5.488;2023-07-20T04:34:18;18.90;99.90
26537;DHT22;14204;51.262;5.488;2023-07-20T04:36:43;18.90;99.90
26537;DHT22;14204;51.262;5.488;2023-07-20T04:39:10;18.90;99.90
26537;DHT22;14204;51.262;5.488;2023-07-20T04:41:35;18.90;99.90
26537;DHT22;14204;51.262;5.488;2023-07-20T04:44:01;18.90;99.90
26537;DHT22;14204;51.262;5.488;2023-07-20T04:46:27;19.00;99.90
26537;DHT22;14204;51.262;5.488;2023-07-20T04:48:52;19.00;99.90
26537;DHT22;14204;51.262;5.488;2023-07-20T04:51:18;18.90;99.90
26537;DHT22;14204;51.262;5.488;2023-07-20T04:53:47;19.00;99.90
26537;DHT22;14204;51.262;5.488;2023-07-20T04:56:12;19.00;99.90
26537;DHT22;14204;51.262;5.488;2023-07-20T04:58:38;19.10;99.90
26537;DHT22;14204;51.262;5.488;2023-07-20T05:01:04;19.10;99.90
26537;DHT22;14204;51.262;5.488;2023-07-20T05:03:29;19.00;99.90
26537;DHT22;14204;51.262;5.488;2023-07-20T05:05:55;19.00;99.90
26537;DHT22;14204;51.262;5.488;2023-07-20T05:08:21;19.00;99.90
26537;DHT22;14204;51.262;5.488;2023-07-20T05:10:49;19.00;99.90
26537;DHT22;14204;51.262;5.488;2023-07-20T05:13:15;19.00;99.90
26537;DHT22;14204;51.262;5.488;2023-07-20T05:15:41;19.00;99.90
26537;DHT22;14204;51.262;5.488;2023-07-20T05:18:06;19.00;99.90
26537;DHT22;14204;51.262;5.488;2023-07-20T05:20:33;19.00;99.90
26537;DHT22;14204;51.262;5.488;2023-07-20T05:22:59;19.00;99.90
26537;DHT22;14204;51.262;5.488;2023-07-20T05:25:26;19.00;99.90
26537;DHT22;14204;51.262;5.488;2023-07-20T05:27:52;19.00;99.90
26537;DHT22;14204;51.262;5.488;2023-07-20T05:30:18;19.00;99.90
26537;DHT22;14204;51.262;5.488;2023-07-20T05:32:44;19.00;99.90
26537;DHT22;14204;51.262;5.488;2023-07-20T05:35:12;19.00;99.90
26537;DHT22;14204;51.262;5.488;2023-07-20T05:37:39;19.00;99.90
26537;DHT22;14204;51.262;5.488;2023-07-20T05:40:05;19.10;99.90
26537;DHT22;14204;51.262;5.488;2023-07-20T05:42:33;19.10;99.90
26537;DHT22;14204;51.262;5.488;2023-07-20T05:44:59;19.10;99.90
26537;DHT22;14204;51.262;5.488;2023-07-20T05:47:24;19.10;99.90
26537;DHT22;14204;51.262;5.488;2023-07-20T05:49:50;19.20;99.90
26537;DHT22;14204;51.262;5.488;2023-07-20T05:52:16;19.20;99.90
26537;DHT22;14204;51.262;5.488;2023-07-20T05:54:41;19.30;99.90
26537;DHT22;14204;51.262;5.488;2023-07-20T05:57:07;19.40;99.90
26537;DHT22;14204;51.262;5.488;2023-07-20T05:59:33;19.40;99.90
26537;DHT22;14204;51.262;5.488;2023-07-20T06:01:59;19.30;99.90
26537;DHT22;14204;51.262;5.488;2023-07-20T06:04:25;19.30;99.90
26537;DHT22;14204;51.262;5.488;2023-07-20T06:06:50;19.40;99.90
26537;DHT22;14204;51.262;5.488;2023-07-20T06:09:16;19.30;99.90
26537;DHT22;14204;51.262;5.488;2023-07-20T06:11:42;19.40;99.90
26537;DHT22;14204;51.262;5.488;2023-07-20T06:14:07;19.40;99.90
26537;DHT22;14204;51.262;5.488;2023-07-20T06:16:33;19.50;99.90
26537;DHT22;14204;51.262;5.488;2023-07-20T06:19:00;19.40;99.90
26537;DHT22;14204;51.262;5.488;2023-07-20T06:21:26;19.50;99.90
26537;DHT22;14204;51.262;5.488;2023-07-20T06:23:52;19.50;99.90
26537;DHT22;14204;51.262;5.488;2023-07-20T06:26:17;19.50;99.90
26537;DHT22;14204;51.262;5.488;2023-07-20T06:28:43;19.50;99.90
26537;DHT22;14204;51.262;5.488;2023-07-20T06:31:08;19.40;99.90
26537;DHT22;14204;51.262;5.488;2023-07-20T06:33:34;19.40;99.90
26537;DHT22;14204;51.262;5.488;2023-07-20T06:36:00;19.50;99.90
26537;DHT22;14204;51.262;5.488;2023-07-20T06:38:25;19.40;99.90
26537;DHT22;14204;51.262;5.488;2023-07-20T06:40:52;19.40;99.90
26537;DHT22;14204;51.262;5.488;2023-07-20T06:43:18;19.40;99.90
26537;DHT22;14204;51.262;5.488;2023-07-20T06:45:52;19.30;99.90
26537;DHT22;14204;51.262;5.488;2023-07-20T06:48:21;19.40;99.90
26537;DHT22;14204;51.262;5.488;2023-07-20T06:50:47;19.50;99.90
26537;DHT22;14204;51.262;5.488;2023-07-20T06:53:13;19.50;99.90
26537;DHT22;14204;51.262;5.488;2023-07-20T06:55:38;19.60;99.90
26537;DHT22;14204;51.262;5.488;2023-07-20T06:58:04;19.60;99.90
26537;DHT22;14204;51.262;5.488;2023-07-20T07:00:30;19.60;99.90
26537;DHT22;14204;51.262;5.488;2023-07-20T07:02:56;19.50;99.90
26537;DHT22;14204;51.262;5.488;2023-07-20T07:05:22;19.60;99.90
26537;DHT22;14204;51.262;5.488;2023-07-20T07:07:47;19.60;99.90
26537;DHT22;14204;51.262;5.488;2023-07-20T07:10:14;19.70;99.90
26537;DHT22;14204;51.262;5.488;2023-07-20T07:12:40;19.80;99.90
26537;DHT22;14204;51.262;5.488;2023-07-20T07:15:06;19.80;99.90
26537;DHT22;14204;51.262;5.488;2023-07-20T07:17:32;19.80;99.90
26537;DHT22;14204;51.262;5.488;2023-07-20T07:19:58;19.90;99.90
26537;DHT22;14204;51.262;5.488;2023-07-20T07:22:24;20.00;99.90
26537;DHT22;14204;51.262;5.488;2023-07-20T07:24:50;19.90;99.90
26537;DHT22;14204;51.262;5.488;2023-07-20T07:27:16;20.00;99.90
26537;DHT22;14204;51.262;5.488;2023-07-20T07:29:42;20.10;99.90
26537;DHT22;14204;51.262;5.488;2023-07-20T07:32:10;20.00;99.90
26537;DHT22;14204;51.262;5.488;2023-07-20T07:34:36;20.00;99.90
26537;DHT22;14204;51.262;5.488;2023-07-20T07:37:03;19.90;99.90
26537;DHT22;14204;51.262;5.488;2023-07-20T07:39:29;19.90;99.90
26537;DHT22;14204;51.262;5.488;2023-07-20T07:41:55;19.90;99.90
26537;DHT22;14204;51.262;5.488;2023-07-20T07:44:21;19.90;99.90
26537;DHT22;14204;51.262;5.488;2023-07-20T07:46:47;19.90;99.90
26537;DHT22;14204;51.262;5.488;2023-07-20T07:49:14;19.90;99.90
26537;DHT22;14204;51.262;5.488;2023-07-20T07:51:40;19.90;99.90
26537;DHT22;14204;51.262;5.488;2023-07-20T07:54:05;19.90;99.90
26537;DHT22;14204;51.262;5.488;2023-07-20T07:56:31;20.00;99.90
26537;DHT22;14204;51.262;5.488;2023-07-20T07:58:57;20.00;99.90
26537;DHT22;14204;51.262;5.488;2023-07-20T08:01:22;20.10;99.90
26537;DHT22;14204;51.262;5.488;2023-07-20T08:03:48;20.30;99.90
26537;DHT22;14204;51.262;5.488;2023-07-20T08:06:14;20.40;99.90
26537;DHT22;14204;51.262;5.488;2023-07-20T08:08:40;20.60;99.90
26537;DHT22;14204;51.262;5.488;2023-07-20T08:11:06;20.80;99.90
26537;DHT22;14204;51.262;5.488;2023-07-20T08:13:31;21.00;99.90
26537;DHT22;14204;51.262;5.488;2023-07-20T08:15:58;20.80;99.90
26537;DHT22;14204;51.262;5.488;2023-07-20T08:18:24;20.90;99.90
26537;DHT22;14204;51.262;5.488;2023-07-20T08:20:50;20.90;99.90
26537;DHT22;14204;51.262;5.488;2023-07-20T08:23:16;20.90;99.90
26537;DHT22;14204;51.262;5.488;2023-07-20T08:25:42;20.90;99.90
26537;DHT22;14204;51.262;5.488;2023-07-20T08:28:11;20.90;99.90
26537;DHT22;14204;51.262;5.488;2023-07-20T08:30:48;20.90;99.90
26537;DHT22;14204;51.262;5.488;2023-07-20T08:33:18;20.70;99.90
26537;DHT22;14204;51.262;5.488;2023-07-20T08:35:45;20.60;99.90
26537;DHT22;14204;51.262;5.488;2023-07-20T08:38:11;20.60;99.90
26537;DHT22;14204;51.262;5.488;2023-07-20T08:40:42;20.70;99.90
26537;DHT22;14204;51.262;5.488;2023-07-20T08:43:10;21.00;99.90
26537;DHT22;14204;51.262;5.488;2023-07-20T08:45:38;21.20;99.90
26537;DHT22;14204;51.262;5.488;2023-07-20T08:48:06;21.40;99.90
26537;DHT22;14204;51.262;5.488;2023-07-20T08:50:33;21.60;99.90
26537;DHT22;14204;51.262;5.488;2023-07-20T08:52:59;21.80;99.90
26537;DHT22;14204;51.262;5.488;2023-07-20T08:55:26;21.70;99.90
26537;DHT22;14204;51.262;5.488;2023-07-20T08:57:56;21.80;99.90
26537;DHT22;14204;51.262;5.488;2023-07-20T09:00:24;22.10;99.90
26537;DHT22;14204;51.262;5.488;2023-07-20T09:02:52;22.40;99.90
26537;DHT22;14204;51.262;5.488;2023-07-20T09:05:21;22.50;99.90
26537;DHT22;14204;51.262;5.488;2023-07-20T09:07:48;22.70;99.90
26537;DHT22;14204;51.262;5.488;2023-07-20T09:10:14;23.00;99.90
26537;DHT22;14204;51.262;5.488;2023-07-20T09:12:41;22.90;99.90
26537;DHT22;14204;51.262;5.488;2023-07-20T09:15:08;23.10;99.90
26537;DHT22;14204;51.262;5.488;2023-07-20T09:17:34;23.40;99.90
26537;DHT22;14204;51.262;5.488;2023-07-20T09:20:07;23.20;99.90
26537;DHT22;14204;51.262;5.488;2023-07-20T09:22:37;23.10;99.90
26537;DHT22;14204;51.262;5.488;2023-07-20T09:25:18;22.90;99.90
26537;DHT22;14204;51.262;5.488;2023-07-20T09:27:48;22.70;99.90
26537;DHT22;14204;51.262;5.488;2023-07-20T09:30:16;22.50;99.90
26537;DHT22;14204;51.262;5.488;2023-07-20T09:32:46;22.50;99.90
26537;DHT22;14204;51.262;5.488;2023-07-20T09:35:16;22.40;99.90
26537;DHT22;14204;51.262;5.488;2023-07-20T09:37:59;22.70;99.90
26537;DHT22;14204;51.262;5.488;2023-07-20T09:40:28;22.80;99.90
26537;DHT22;14204;51.262;5.488;2023-07-20T09:42:55;22.70;99.90
26537;DHT22;14204;51.262;5.488;2023-07-20T09:45:33;23.00;99.90
26537;DHT22;14204;51.262;5.488;2023-07-20T09:48:06;23.40;99.90
26537;DHT22;14204;51.262;5.488;2023-07-20T09:50:40;23.50;99.90
26537;DHT22;14204;51.262;5.488;2023-07-20T09:53:11;23.40;99.90
26537;DHT22;14204;51.262;5.488;2023-07-20T09:55:40;23.40;99.90
26537;DHT22;14204;51.262;5.488;2023-07-20T09:58:06;23.30;99.90
26537;DHT22;14204;51.262;5.488;2023-07-20T10:00:36;23.30;99.90
26537;DHT22;14204;51.262;5.488;2023-07-20T10:03:05;23.20;99.90
26537;DHT22;14204;51.262;5.488;2023-07-20T10:05:35;23.10;99.90
26537;DHT22;14204;51.262;5.488;2023-07-20T10:08:03;23.00;99.90
26537;DHT22;14204;51.262;5.488;2023-07-20T10:10:33;22.80;99.90
26537;DHT22;14204;51.262;5.488;2023-07-20T10:13:00;23.30;99.90
26537;DHT22;14204;51.262;5.488;2023-07-20T10:15:45;23.70;99.90
26537;DHT22;14204;51.262;5.488;2023-07-20T10:18:17;23.90;99.90
26537;DHT22;14204;51.262;5.488;2023-07-20T10:20:44;24.10;99.90
26537;DHT22;14204;51.262;5.488;2023-07-20T10:23:12;24.20;99.90
26537;DHT22;14204;51.262;5.488;2023-07-20T10:25:38;24.40;99.90
26537;DHT22;14204;51.262;5.488;2023-07-20T10:28:07;24.60;99.90
26537;DHT22;14204;51.262;5.488;2023-07-20T10:30:36;24.80;99.90
26537;DHT22;14204;51.262;5.488;2023-07-20T10:33:05;24.70;99.90
26537;DHT22;14204;51.262;5.488;2023-07-20T10:35:55;23.90;99.90
26537;DHT22;14204;51.262;5.488;2023-07-20T10:38:52;23.80;99.90
26537;DHT22;14204;51.262;5.488;2023-07-20T10:43:46;23.80;99.90
26537;DHT22;14204;51.262;5.488;2023-07-20T10:46:13;24.30;99.90
26537;DHT22;14204;51.262;5.488;2023-07-20T10:49:07;24.70;99.90
26537;DHT22;14204;51.262;5.488;2023-07-20T10:51:46;25.00;99.90
26537;DHT22;14204;51.262;5.488;2023-07-20T10:56:42;25.20;99.90
26537;DHT22;14204;51.262;5.488;2023-07-20T11:01:49;25.30;99.90
26537;DHT22;14204;51.262;5.488;2023-07-20T11:04:16;25.10;99.90
26537;DHT22;14204;51.262;5.488;2023-07-20T11:06:46;25.00;99.90
26537;DHT22;14204;51.262;5.488;2023-07-20T11:09:13;25.20;99.90
26537;DHT22;14204;51.262;5.488;2023-07-20T11:11:44;25.30;99.90
26537;DHT22;14204;51.262;5.488;2023-07-20T11:14:30;25.40;99.90
26537;DHT22;14204;51.262;5.488;2023-07-20T11:17:11;25.40;99.90
26537;DHT22;14204;51.262;5.488;2023-07-20T11:19:39;25.50;99.90
26537;DHT22;14204;51.262;5.488;2023-07-20T11:22:06;25.70;99.90
26537;DHT22;14204;51.262;5.488;2023-07-20T11:24:39;25.80;99.90
26537;DHT22;14204;51.262;5.488;2023-07-20T11:27:05;26.00;99.90
26537;DHT22;14204;51.262;5.488;2023-07-20T11:29:31;26.10;99.90
26537;DHT22;14204;51.262;5.488;2023-07-20T11:31:57;26.30;99.90
26537;DHT22;14204;51.262;5.488;2023-07-20T11:34:24;26.30;99.90
26537;DHT22;14204;51.262;5.488;2023-07-20T11:36:51;26.30;99.90
26537;DHT22;14204;51.262;5.488;2023-07-20T11:39:19;26.40;99.90
26537;DHT22;14204;51.262;5.488;2023-07-20T11:41:51;26.30;99.90
26537;DHT22;14204;51.262;5.488;2023-07-20T11:44:21;26.10;99.90
26537;DHT22;14204;51.262;5.488;2023-07-20T11:47:00;26.20;99.90
26537;DHT22;14204;51.262;5.488;2023-07-20T11:49:27;26.30;99.90
26537;DHT22;14204;51.262;5.488;2023-07-20T11:51:52;26.10;99.90
26537;DHT22;14204;51.262;5.488;2023-07-20T11:54:18;26.20;99.90
26537;DHT22;14204;51.262;5.488;2023-07-20T11:56:44;26.40;99.90
26537;DHT22;14204;51.262;5.488;2023-07-20T11:59:10;26.40;99.90
26537;DHT22;14204;51.262;5.488;2023-07-20T12:01:36;26.60;99.90
26537;DHT22;14204;51.262;5.488;2023-07-20T12:04:03;26.20;99.90
26537;DHT22;14204;51.262;5.488;2023-07-20T12:06:29;25.70;99.90
26537;DHT22;14204;51.262;5.488;2023-07-20T12:08:57;25.80;99.90
26537;DHT22;14204;51.262;5.488;2023-07-20T12:11:35;26.20;99.90
26537;DHT22;14204;51.262;5.488;2023-07-20T12:14:02;26.40;99.90
26537;DHT22;14204;51.262;5.488;2023-07-20T12:16:29;26.50;99.90
26537;DHT22;14204;51.262;5.488;2023-07-20T12:19:08;26.80;99.90
26537;DHT22;14204;51.262;5.488;2023-07-20T12:21:35;26.70;99.90
26537;DHT22;14204;51.262;5.488;2023-07-20T12:24:05;26.50;99.90
26537;DHT22;14204;51.262;5.488;2023-07-20T12:26:32;26.30;99.90
26537;DHT22;14204;51.262;5.488;2023-07-20T12:28:58;26.40;99.90
26537;DHT22;14204;51.262;5.488;2023-07-20T12:31:25;26.50;99.90
26537;DHT22;14204;51.262;5.488;2023-07-20T12:33:51;26.70;99.90
26537;DHT22;14204;51.262;5.488;2023-07-20T12:36:18;26.50;99.90
26537;DHT22;14204;51.262;5.488;2023-07-20T12:38:44;26.30;99.90
26537;DHT22;14204;51.262;5.488;2023-07-20T12:41:11;26.40;99.90
26537;DHT22;14204;51.262;5.488;2023-07-20T12:43:44;26.40;99.90
26537;DHT22;14204;51.262;5.488;2023-07-20T12:46:11;26.50;99.90
26537;DHT22;14204;51.262;5.488;2023-07-20T12:48:38;26.40;99.90
26537;DHT22;14204;51.262;5.488;2023-07-20T12:51:05;26.60;99.90
26537;DHT22;14204;51.262;5.488;2023-07-20T12:53:31;26.40;99.90
26537;DHT22;14204;51.262;5.488;2023-07-20T12:55:58;26.20;99.90
26537;DHT22;14204;51.262;5.488;2023-07-20T12:58:24;26.40;99.90
26537;DHT22;14204;51.262;5.488;2023-07-20T13:00:50;26.10;99.90
26537;DHT22;14204;51.262;5.488;2023-07-20T13:03:15;26.30;99.90
26537;DHT22;14204;51.262;5.488;2023-07-20T13:05:44;26.70;99.90
26537;DHT22;14204;51.262;5.488;2023-07-20T13:08:09;27.00;99.90
26537;DHT22;14204;51.262;5.488;2023-07-20T13:10:36;26.90;99.90
26537;DHT22;14204;51.262;5.488;2023-07-20T13:13:02;26.70;99.60
26537;DHT22;14204;51.262;5.488;2023-07-20T13:15:32;26.40;99.90
26537;DHT22;14204;51.262;5.488;2023-07-20T13:17:58;26.30;99.90
26537;DHT22;14204;51.262;5.488;2023-07-20T13:20:25;26.10;99.90
26537;DHT22;14204;51.262;5.488;2023-07-20T13:22:51;26.10;99.90
26537;DHT22;14204;51.262;5.488;2023-07-20T13:25:17;26.00;99.90
26537;DHT22;14204;51.262;5.488;2023-07-20T13:27:42;26.00;99.90
26537;DHT22;14204;51.262;5.488;2023-07-20T13:30:08;25.80;99.90
26537;DHT22;14204;51.262;5.488;2023-07-20T13:32:39;25.90;99.90
26537;DHT22;14204;51.262;5.488;2023-07-20T13:35:05;25.90;99.90
26537;DHT22;14204;51.262;5.488;2023-07-20T13:37:31;26.20;99.90
26537;DHT22;14204;51.262;5.488;2023-07-20T13:39:56;26.40;99.90
26537;DHT22;14204;51.262;5.488;2023-07-20T13:42:22;26.40;99.90
26537;DHT22;14204;51.262;5.488;2023-07-20T13:44:48;26.60;99.90
26537;DHT22;14204;51.262;5.488;2023-07-20T13:47:14;26.80;99.90
26537;DHT22;14204;51.262;5.488;2023-07-20T13:49:40;26.90;99.90
26537;DHT22;14204;51.262;5.488;2023-07-20T13:52:06;26.70;99.90
26537;DHT22;14204;51.262;5.488;2023-07-20T13:54:32;26.60;99.90
26537;DHT22;14204;51.262;5.488;2023-07-20T13:56:57;26.50;99.90
26537;DHT22;14204;51.262;5.488;2023-07-20T13:59:23;26.50;99.90
26537;DHT22;14204;51.262;5.488;2023-07-20T14:01:48;26.30;99.90
26537;DHT22;14204;51.262;5.488;2023-07-20T14:04:14;25.90;99.60
26537;DHT22;14204;51.262;5.488;2023-07-20T14:06:40;25.90;99.90
26537;DHT22;14204;51.262;5.488;2023-07-20T14:09:06;25.90;99.90
26537;DHT22;14204;51.262;5.488;2023-07-20T14:11:32;25.80;99.90
26537;DHT22;14204;51.262;5.488;2023-07-20T14:13:57;25.60;99.90
26537;DHT22;14204;51.262;5.488;2023-07-20T14:16:24;25.70;99.90
26537;DHT22;14204;51.262;5.488;2023-07-20T14:18:50;25.50;99.90
26537;DHT22;14204;51.262;5.488;2023-07-20T14:21:17;25.60;99.90
26537;DHT22;14204;51.262;5.488;2023-07-20T14:23:50;25.60;99.90
26537;DHT22;14204;51.262;5.488;2023-07-20T14:26:16;25.60;99.90
26537;DHT22;14204;51.262;5.488;2023-07-20T14:28:42;25.60;99.90
26537;DHT22;14204;51.262;5.488;2023-07-20T14:31:08;25.50;99.90
26537;DHT22;14204;51.262;5.488;2023-07-20T14:33:34;25.60;99.90
26537;DHT22;14204;51.262;5.488;2023-07-20T14:35:59;25.40;99.90
26537;DHT22;14204;51.262;5.488;2023-07-20T14:38:27;25.40;99.90
26537;DHT22;14204;51.262;5.488;2023-07-20T14:40:53;25.30;99.90
26537;DHT22;14204;51.262;5.488;2023-07-20T14:43:19;25.30;99.90
26537;DHT22;14204;51.262;5.488;2023-07-20T14:45:45;25.00;99.90
26537;DHT22;14204;51.262;5.488;2023-07-20T14:48:11;25.00;99.90
26537;DHT22;14204;51.262;5.488;2023-07-20T14:50:37;24.90;99.90
26537;DHT22;14204;51.262;5.488;2023-07-20T14:53:03;24.80;99.90
26537;DHT22;14204;51.262;5.488;2023-07-20T14:55:28;24.80;99.90
26537;DHT22;14204;51.262;5.488;2023-07-20T14:57:54;24.70;99.90
26537;DHT22;14204;51.262;5.488;2023-07-20T15:00:20;24.70;99.90
26537;DHT22;14204;51.262;5.488;2023-07-20T15:02:46;24.70;99.90
26537;DHT22;14204;51.262;5.488;2023-07-20T15:05:12;24.60;99.90
26537;DHT22;14204;51.262;5.488;2023-07-20T15:07:47;24.40;99.90
26537;DHT22;14204;51.262;5.488;2023-07-20T15:10:13;24.40;99.90
26537;DHT22;14204;51.262;5.488;2023-07-20T15:12:39;24.60;99.90
26537;DHT22;14204;51.262;5.488;2023-07-20T15:15:13;24.60;99.90
26537;DHT22;14204;51.262;5.488;2023-07-20T15:17:41;24.70;99.90
26537;DHT22;14204;51.262;5.488;2023-07-20T15:20:09;24.60;99.90
26537;DHT22;14204;51.262;5.488;2023-07-20T15:22:36;24.70;99.90
26537;DHT22;14204;51.262;5.488;2023-07-20T15:25:03;24.70;99.90
26537;DHT22;14204;51.262;5.488;2023-07-20T15:27:29;24.80;99.90
26537;DHT22;14204;51.262;5.488;2023-07-20T15:29:55;24.80;99.90
26537;DHT22;14204;51.262;5.488;2023-07-20T15:32:21;24.80;99.90
26537;DHT22;14204;51.262;5.488;2023-07-20T15:34:47;24.70;99.90
26537;DHT22;14204;51.262;5.488;2023-07-20T15:37:13;24.70;99.90
26537;DHT22;14204;51.262;5.488;2023-07-20T15:39:39;24.50;99.90
26537;DHT22;14204;51.262;5.488;2023-07-20T15:42:05;24.30;99.90
26537;DHT22;14204;51.262;5.488;2023-07-20T15:44:31;24.30;99.90
26537;DHT22;14204;51.262;5.488;2023-07-20T15:46:57;24.20;99.90